createdAt,value
2022-12-23T00:01:33.035Z,325.00
2022-12-23T00:04:50.157Z,318.80
2022-12-23T00:10:16.986Z,509.60
2022-12-23T00:11:30.803Z,475.00
2022-12-23T00:18:16.870Z,514.00
2022-12-23T00:19:12.680Z,534.50
2022-12-23T00:21:47.671Z,464.80
2022-12-23T00:23:40.917Z,604.50
2022-12-23T00:28:15.512Z,458.20
2022-12-23T00:29:17.041Z,442.30
2022-12-23T00:30:12.892Z,404.40
2022-12-23T00:31:15.172Z,490.30
2022-12-23T00:34:41.417Z,540.40
2022-12-23T00:45:52.381Z,449.50
2022-12-23T00:48:04.128Z,476.60
2022-12-23T00:50:06.550Z,478.70
2022-12-23T00:52:20.619Z,479.90
2022-12-23T00:53:51.581Z,479.40
2022-12-23T00:54:17.885Z,482.80
2022-12-23T00:56:48.298Z,486.90
2022-12-23T00:59:28.528Z,538.40
2022-12-23T01:03:43.927Z,429.20
2022-12-23T01:05:07.350Z,420.00
2022-12-23T01:06:06.084Z,681.90
2022-12-23T01:11:30.439Z,381.20
2022-12-23T01:14:06.595Z,424.80
2022-12-23T01:15:04.185Z,426.00
2022-12-23T01:22:27.718Z,390.40
2022-12-23T01:23:07.492Z,406.40
2022-12-23T01:25:30.877Z,366.90
2022-12-23T01:27:31.601Z,311.20
2022-12-23T01:28:36.214Z,305.10
2022-12-23T01:29:38.950Z,324.90
2022-12-23T01:31:05.208Z,301.40
2022-12-23T01:31:41.638Z,298.90
2022-12-23T01:32:34.788Z,298.40
2022-12-23T01:36:26.730Z,363.60
2022-12-23T01:38:36.799Z,378.30
2022-12-23T01:39:40.657Z,389.20
2022-12-23T01:40:39.456Z,348.80
2022-12-23T01:41:35.960Z,356.90
2022-12-23T01:48:25.982Z,385.10
2022-12-23T01:54:44.459Z,427.40
2022-12-23T01:55:25.829Z,429.90
2022-12-23T01:58:46.784Z,460.70
2022-12-23T02:00:03.137Z,468.20
2022-12-23T02:01:16.500Z,422.20
2022-12-23T02:01:44.231Z,528.40
2022-12-23T02:03:06.061Z,404.10
2022-12-23T02:05:01.166Z,431.90
2022-12-23T02:05:59.278Z,430.50
2022-12-23T02:07:18.991Z,465.90
2022-12-23T02:08:00.119Z,523.80
2022-12-23T02:08:58.751Z,407.90
2022-12-23T02:09:58.290Z,445.60
2022-12-23T02:13:54.978Z,487.30
2022-12-23T02:15:37.529Z,482.70
2022-12-23T02:16:34.201Z,471.60
2022-12-23T02:17:41.488Z,538.60
2022-12-23T02:18:43.691Z,496.20
2022-12-23T02:23:14.348Z,635.70
2022-12-23T02:24:14.986Z,648.80
2022-12-23T02:25:10.896Z,647.50
2022-12-23T02:26:13.734Z,679.90
2022-12-23T02:27:12.254Z,558.60
2022-12-23T02:28:22.762Z,695.00
2022-12-23T02:29:15.253Z,629.50
2022-12-23T02:30:20.001Z,804.90
2022-12-23T02:32:48.138Z,663.60
2022-12-23T02:33:54.813Z,671.60
2022-12-23T02:34:31.948Z,698.00
2022-12-23T02:35:26.181Z,736.30
2022-12-23T02:36:23.244Z,868.60
2022-12-23T02:37:43.120Z,470.60
2022-12-23T02:38:33.068Z,704.80
2022-12-23T02:39:30.670Z,624.30
2022-12-23T02:40:26.222Z,688.80
2022-12-23T02:41:22.163Z,498.10
2022-12-23T02:42:21.230Z,502.40
2022-12-23T02:43:24.771Z,560.00
2022-12-23T02:44:25.280Z,652.40
2022-12-23T02:45:26.790Z,592.40
2022-12-23T02:46:48.172Z,511.50
2022-12-23T02:47:31.696Z,461.20
2022-12-23T02:48:24.927Z,468.30
2022-12-23T02:49:21.095Z,454.70
2022-12-23T02:50:23.150Z,449.30
2022-12-23T02:51:23.630Z,398.50
2022-12-23T02:52:25.330Z,426.10
2022-12-23T02:53:22.036Z,488.20
2022-12-23T02:54:21.847Z,417.60
2022-12-23T02:55:21.032Z,348.50
2022-12-23T02:56:22.568Z,433.70
2022-12-23T02:57:20.941Z,446.90
2022-12-23T02:58:21.729Z,406.10
2022-12-23T02:59:25.161Z,368.10
2022-12-23T03:00:23.272Z,374.00
2022-12-23T03:01:22.969Z,432.40
2022-12-23T03:02:21.023Z,372.80
2022-12-23T03:03:21.153Z,437.40
2022-12-23T03:04:20.791Z,461.10
2022-12-23T03:05:20.869Z,323.30
2022-12-23T03:06:20.790Z,371.80
2022-12-23T03:07:20.783Z,326.80
2022-12-23T03:08:20.771Z,396.80
2022-12-23T03:09:20.752Z,341.80
2022-12-23T03:10:20.712Z,337.40
2022-12-23T03:11:20.859Z,333.30
2022-12-23T03:12:20.679Z,311.70
2022-12-23T03:13:20.725Z,351.60
2022-12-23T03:14:20.686Z,400.20
2022-12-23T03:15:20.683Z,456.30
2022-12-23T03:16:20.775Z,439.20
2022-12-23T03:17:20.691Z,337.80
2022-12-23T03:18:20.612Z,349.60
2022-12-23T03:19:20.639Z,362.70
2022-12-23T03:20:20.608Z,300.30
2022-12-23T03:21:20.591Z,369.50
2022-12-23T03:22:20.553Z,375.40
2022-12-23T03:23:20.623Z,307.90
2022-12-23T03:24:20.513Z,400.40
2022-12-23T03:25:20.561Z,355.90
2022-12-23T03:26:20.528Z,370.90
2022-12-23T03:27:20.518Z,388.20
2022-12-23T03:28:20.498Z,373.90
2022-12-23T03:29:20.513Z,341.40
2022-12-23T03:30:20.454Z,355.90
2022-12-23T03:31:20.571Z,286.10
2022-12-23T03:32:20.429Z,306.20
2022-12-23T03:33:20.473Z,275.10
2022-12-23T03:34:20.413Z,289.80
2022-12-23T03:35:20.516Z,266.40
2022-12-23T03:36:20.359Z,300.20
2022-12-23T03:37:20.404Z,265.30
2022-12-23T03:38:20.355Z,314.20
2022-12-23T03:39:20.342Z,262.50
2022-12-23T03:40:20.360Z,237.60
2022-12-23T03:41:20.359Z,262.00
2022-12-23T03:42:20.284Z,283.50
2022-12-23T03:43:20.331Z,247.50
2022-12-23T03:44:20.250Z,212.30
2022-12-23T03:45:38.288Z,229.40
2022-12-23T03:46:21.451Z,262.80
2022-12-23T03:47:20.243Z,233.50
2022-12-23T03:48:20.238Z,257.30
2022-12-23T03:49:20.219Z,207.20
2022-12-23T03:50:20.203Z,255.20
2022-12-23T03:51:20.224Z,263.60
2022-12-23T03:52:21.735Z,285.30
2022-12-23T03:53:20.167Z,278.70
2022-12-23T03:54:20.128Z,289.80
2022-12-23T03:55:20.179Z,247.50
2022-12-23T03:56:20.092Z,258.90
2022-12-23T03:57:20.141Z,254.30
2022-12-23T03:58:20.226Z,270.00
2022-12-23T03:59:20.094Z,299.50
2022-12-23T04:00:20.070Z,294.60
2022-12-23T04:01:20.096Z,217.20
2022-12-23T04:02:20.128Z,250.80
2022-12-23T04:03:20.052Z,212.20
2022-12-23T04:04:20.079Z,213.90
2022-12-23T04:05:20.040Z,232.30
2022-12-23T04:06:19.993Z,233.60
2022-12-23T04:07:19.990Z,187.20
2022-12-23T04:08:19.971Z,199.00
2022-12-23T04:09:22.220Z,185.40
2022-12-23T04:10:20.029Z,177.10
2022-12-23T04:11:19.955Z,202.70
2022-12-23T04:12:19.888Z,204.90
2022-12-23T04:13:19.923Z,218.20
2022-12-23T04:14:19.897Z,226.50
2022-12-23T04:15:20.606Z,262.90
2022-12-23T04:16:20.042Z,228.90
2022-12-23T04:17:19.855Z,232.90
2022-12-23T04:18:19.816Z,223.30
2022-12-23T04:19:19.933Z,221.70
2022-12-23T04:20:19.790Z,229.10
2022-12-23T04:21:19.818Z,227.50
2022-12-23T04:22:19.823Z,232.10
2022-12-23T04:23:19.772Z,218.10
2022-12-23T04:24:19.723Z,227.90
2022-12-23T04:25:19.774Z,229.70
2022-12-23T04:26:19.726Z,240.20
2022-12-23T04:27:19.711Z,218.30
2022-12-23T04:28:19.819Z,242.70
2022-12-23T04:29:19.705Z,266.00
2022-12-23T04:30:19.657Z,222.00
2022-12-23T04:31:19.740Z,261.00
2022-12-23T04:32:19.628Z,220.10
2022-12-23T04:33:19.662Z,271.20
2022-12-23T04:34:19.759Z,288.60
2022-12-23T04:35:19.610Z,287.20
2022-12-23T04:36:19.603Z,257.70
2022-12-23T04:37:19.592Z,291.90
2022-12-23T04:38:19.552Z,314.70
2022-12-23T04:39:19.588Z,301.20
2022-12-23T04:40:19.650Z,318.00
2022-12-23T04:41:19.526Z,337.60
2022-12-23T04:42:19.506Z,359.20
2022-12-23T04:43:19.548Z,339.60
2022-12-23T04:44:19.465Z,340.40
2022-12-23T04:45:19.506Z,309.10
2022-12-23T04:46:19.642Z,289.70
2022-12-23T04:47:19.451Z,264.60
2022-12-23T04:48:19.440Z,277.20
2022-12-23T04:49:19.426Z,309.50
2022-12-23T04:50:19.386Z,316.40
2022-12-23T04:51:19.441Z,327.20
2022-12-23T04:52:19.413Z,331.70
2022-12-23T04:53:19.396Z,305.80
2022-12-23T04:54:19.355Z,302.40
2022-12-23T04:55:19.360Z,331.80
2022-12-23T04:56:19.300Z,283.30
2022-12-23T04:57:19.346Z,321.20
2022-12-23T04:58:19.340Z,347.70
2022-12-23T04:59:19.294Z,393.90
2022-12-23T05:00:19.277Z,306.90
2022-12-23T05:01:19.334Z,287.80
2022-12-23T05:02:19.309Z,315.10
2022-12-23T05:03:19.348Z,365.30
2022-12-23T05:04:19.257Z,401.50
2022-12-23T05:05:19.255Z,417.10
2022-12-23T05:06:19.206Z,388.10
2022-12-23T05:07:19.183Z,416.80
2022-12-23T05:08:19.180Z,422.70
2022-12-23T05:09:19.167Z,448.70
2022-12-23T05:10:19.144Z,407.70
2022-12-23T05:11:19.159Z,403.70
2022-12-23T05:12:19.117Z,399.30
2022-12-23T05:13:19.135Z,428.00
2022-12-23T05:14:19.095Z,447.00
2022-12-23T05:15:19.086Z,463.60
2022-12-23T05:16:19.147Z,490.40
2022-12-23T05:17:19.054Z,486.00
2022-12-23T05:18:19.014Z,458.40
2022-12-23T05:19:19.071Z,470.80
2022-12-23T05:20:19.028Z,439.20
2022-12-23T05:21:19.030Z,523.40
2022-12-23T05:22:19.110Z,489.20
2022-12-23T05:23:18.976Z,525.50
2022-12-23T05:24:18.965Z,474.90
2022-12-23T05:25:18.950Z,499.00
2022-12-23T05:26:18.907Z,494.40
2022-12-23T05:27:18.962Z,517.40
2022-12-23T05:28:19.042Z,466.80
2022-12-23T05:29:18.905Z,464.30
2022-12-23T05:30:18.867Z,470.20
2022-12-23T05:31:18.932Z,482.20
2022-12-23T05:32:18.834Z,422.90
2022-12-23T05:33:18.899Z,425.80
2022-12-23T05:34:19.012Z,461.90
2022-12-23T05:35:18.801Z,514.30
2022-12-23T05:36:18.805Z,489.60
2022-12-23T05:37:18.805Z,494.30
2022-12-23T05:38:18.782Z,489.20
2022-12-23T05:39:18.811Z,488.70
2022-12-23T05:40:23.450Z,487.90
2022-12-23T05:41:19.759Z,449.40
2022-12-23T05:42:18.717Z,487.20
2022-12-23T05:43:18.738Z,498.80
2022-12-23T05:44:18.681Z,468.80
2022-12-23T05:45:18.717Z,530.20
2022-12-23T05:46:25.989Z,515.20
2022-12-23T05:47:19.667Z,486.20
2022-12-23T05:48:18.650Z,506.30
2022-12-23T05:49:18.634Z,536.30
2022-12-23T05:50:18.597Z,531.00
2022-12-23T05:51:18.622Z,489.60
2022-12-23T05:52:18.691Z,522.10
2022-12-23T05:53:18.611Z,512.40
2022-12-23T05:54:18.551Z,501.70
2022-12-23T05:55:18.544Z,533.00
2022-12-23T05:56:18.521Z,493.50
2022-12-23T05:57:18.524Z,522.80
2022-12-23T05:58:18.524Z,547.40
2022-12-23T05:59:18.524Z,526.10
2022-12-23T06:00:18.484Z,497.80
2022-12-23T06:01:18.485Z,545.10
2022-12-23T06:02:18.565Z,537.90
2022-12-23T06:03:18.655Z,541.40
2022-12-23T06:04:18.542Z,579.80
2022-12-23T06:05:18.462Z,539.70
2022-12-23T06:06:18.429Z,510.50
2022-12-23T06:07:18.408Z,536.30
2022-12-23T06:08:18.377Z,561.80
2022-12-23T06:09:18.380Z,577.30
2022-12-23T06:10:18.360Z,574.80
2022-12-23T06:11:18.375Z,608.60
2022-12-23T06:12:18.309Z,550.10
2022-12-23T06:13:18.355Z,583.80
2022-12-23T06:14:21.399Z,548.70
2022-12-23T06:15:19.399Z,547.00
2022-12-23T06:16:18.320Z,554.50
2022-12-23T06:17:18.264Z,538.70
2022-12-23T06:18:18.296Z,654.70
2022-12-23T06:19:18.202Z,595.20
2022-12-23T06:20:20.970Z,552.90
2022-12-23T06:21:18.198Z,617.90
2022-12-23T06:22:18.203Z,677.60
2022-12-23T06:23:18.188Z,632.90
2022-12-23T06:24:18.184Z,646.30
2022-12-23T06:25:18.169Z,667.00
2022-12-23T06:26:18.520Z,645.00
2022-12-23T06:27:18.121Z,570.30
2022-12-23T06:28:18.143Z,630.10
2022-12-23T06:29:18.888Z,608.20
2022-12-23T06:30:50.783Z,574.40
2022-12-23T06:31:18.118Z,673.20
2022-12-23T06:32:18.182Z,699.20
2022-12-23T06:33:18.184Z,657.00
2022-12-23T06:34:18.048Z,665.50
2022-12-23T06:35:18.043Z,772.40
2022-12-23T06:36:18.036Z,750.50
2022-12-23T06:37:18.057Z,764.80
2022-12-23T06:38:18.034Z,771.80
2022-12-23T06:39:18.013Z,884.60
2022-12-23T06:40:18.017Z,899.10
2022-12-23T06:41:17.954Z,859.40
2022-12-23T06:42:17.942Z,787.80
2022-12-23T06:43:17.924Z,868.70
2022-12-23T06:44:17.907Z,884.50
2022-12-23T06:45:17.930Z,914.80
2022-12-23T06:46:17.990Z,798.60
2022-12-23T06:47:17.875Z,914.80
2022-12-23T06:48:17.878Z,952.30
2022-12-23T06:49:17.830Z,804.50
2022-12-23T06:50:17.887Z,894.20
2022-12-23T06:51:17.833Z,825.20
2022-12-23T06:52:17.836Z,980.40
2022-12-23T06:53:17.791Z,631.30
2022-12-23T06:54:17.780Z,685.10
2022-12-23T06:55:17.790Z,635.80
2022-12-23T06:56:17.749Z,1346.20
2022-12-23T06:57:17.851Z,875.50
2022-12-23T06:58:17.756Z,636.10
2022-12-23T06:59:17.683Z,681.80
2022-12-23T07:00:17.720Z,694.00
2022-12-23T07:01:17.724Z,662.90
2022-12-23T07:02:17.850Z,837.90
2022-12-23T07:03:17.841Z,926.70
2022-12-23T07:04:17.694Z,874.40
2022-12-23T07:05:17.629Z,907.90
2022-12-23T07:06:17.620Z,1222.90
2022-12-23T07:07:17.602Z,862.40
2022-12-23T07:08:17.609Z,662.50
2022-12-23T07:09:17.670Z,980.80
2022-12-23T07:10:17.622Z,792.70
2022-12-23T07:11:17.537Z,728.50
2022-12-23T07:12:17.570Z,781.60
2022-12-23T07:13:17.513Z,810.20
2022-12-23T07:14:17.542Z,559.30
2022-12-23T07:15:17.543Z,687.30
2022-12-23T07:16:17.567Z,713.80
2022-12-23T07:17:17.467Z,699.20
2022-12-23T07:18:17.491Z,541.50
2022-12-23T07:19:17.435Z,678.90
2022-12-23T07:20:17.486Z,758.30
2022-12-23T07:21:26.531Z,566.30
2022-12-23T07:22:18.432Z,669.80
2022-12-23T07:23:17.403Z,547.10
2022-12-23T07:24:17.396Z,570.10
2022-12-23T07:25:17.368Z,735.40
2022-12-23T07:26:17.378Z,717.40
2022-12-23T07:27:17.352Z,933.20
2022-12-23T07:28:17.356Z,963.90
2022-12-23T07:29:17.322Z,786.30
2022-12-23T07:30:17.315Z,929.80
2022-12-23T07:31:17.311Z,724.60
2022-12-23T07:32:17.278Z,974.40
2022-12-23T07:33:17.282Z,867.00
2022-12-23T07:34:17.276Z,651.50
2022-12-23T07:35:17.228Z,637.50
2022-12-23T07:36:17.240Z,692.70
2022-12-23T07:37:17.194Z,768.10
2022-12-23T07:38:17.227Z,979.00
2022-12-23T07:39:17.191Z,815.10
2022-12-23T07:40:17.198Z,781.10
2022-12-23T07:41:17.162Z,537.70
2022-12-23T07:42:43.626Z,576.30
2022-12-23T07:43:18.139Z,567.60
2022-12-23T07:44:17.147Z,631.50
2022-12-23T07:45:17.191Z,802.40
2022-12-23T07:46:17.194Z,601.90
2022-12-23T07:47:17.070Z,586.90
2022-12-23T07:48:17.099Z,604.10
2022-12-23T07:49:17.069Z,604.60
2022-12-23T07:50:17.046Z,532.50
2022-12-23T07:51:17.050Z,727.20
2022-12-23T07:52:17.065Z,689.00
2022-12-23T07:53:17.007Z,658.50
2022-12-23T07:54:16.993Z,751.60
2022-12-23T07:55:16.975Z,523.10
2022-12-23T07:56:16.971Z,701.20
2022-12-23T07:57:17.195Z,905.10
2022-12-23T07:58:16.961Z,1060.10
2022-12-23T07:59:16.909Z,857.10
2022-12-23T08:00:16.963Z,1001.80
2022-12-23T08:01:16.965Z,1029.40
2022-12-23T08:02:17.083Z,1022.10
2022-12-23T08:03:17.081Z,1063.10
2022-12-23T08:04:16.877Z,773.70
2022-12-23T08:05:16.982Z,708.20
2022-12-23T08:06:16.932Z,728.50
2022-12-23T08:07:16.834Z,683.30
2022-12-23T08:08:16.800Z,623.30
2022-12-23T08:09:16.788Z,704.40
2022-12-23T08:10:16.834Z,751.20
2022-12-23T08:11:16.753Z,791.60
2022-12-23T08:12:16.792Z,918.70
2022-12-23T08:13:16.757Z,1032.70
2022-12-23T08:14:16.720Z,969.70
2022-12-23T08:15:16.746Z,980.20
2022-12-23T08:16:16.741Z,903.50
2022-12-23T08:17:16.895Z,806.30
2022-12-23T08:18:16.686Z,834.70
2022-12-23T08:19:16.643Z,890.10
2022-12-23T08:20:16.679Z,807.30
2022-12-23T08:21:16.681Z,788.40
2022-12-23T08:22:16.631Z,768.20
2022-12-23T08:23:20.000Z,809.60
2022-12-23T08:24:17.614Z,801.00
2022-12-23T08:25:16.602Z,854.00
2022-12-23T08:26:16.606Z,857.60
2022-12-23T08:27:16.552Z,842.90
2022-12-23T08:28:16.562Z,841.00
2022-12-23T08:29:16.542Z,846.50
2022-12-23T08:30:16.518Z,808.40
2022-12-23T08:31:16.598Z,779.20
2022-12-23T08:32:16.485Z,855.90
2022-12-23T08:33:16.467Z,872.40
2022-12-23T08:34:16.494Z,831.00
2022-12-23T08:35:16.436Z,843.70
2022-12-23T08:36:22.409Z,748.30
2022-12-23T08:37:17.429Z,734.20
2022-12-23T08:38:16.407Z,696.40
2022-12-23T08:39:16.501Z,709.80
2022-12-23T08:40:16.414Z,673.50
2022-12-23T08:41:16.373Z,640.40
2022-12-23T08:42:16.378Z,743.50
2022-12-23T08:43:16.337Z,777.60
2022-12-23T08:44:16.330Z,712.80
2022-12-23T08:45:16.437Z,661.20
2022-12-23T08:46:16.365Z,690.00
2022-12-23T08:47:18.996Z,675.90
2022-12-23T08:48:16.327Z,602.70
2022-12-23T08:49:16.289Z,615.30
2022-12-23T08:50:16.265Z,640.90
2022-12-23T08:51:16.354Z,697.30
2022-12-23T08:52:16.240Z,680.90
2022-12-23T08:53:16.194Z,620.90
2022-12-23T08:54:16.231Z,704.80
2022-12-23T08:55:16.207Z,597.20
2022-12-23T08:56:16.167Z,673.20
2022-12-23T08:57:16.266Z,642.40
2022-12-23T08:58:16.181Z,682.50
2022-12-23T08:59:19.142Z,641.10
2022-12-23T09:00:16.143Z,771.70
2022-12-23T09:01:16.171Z,827.30
2022-12-23T09:02:16.269Z,650.90
2022-12-23T09:03:16.346Z,658.00
2022-12-23T09:04:16.080Z,663.70
2022-12-23T09:05:16.102Z,757.20
2022-12-23T09:06:16.068Z,619.20
2022-12-23T09:07:16.002Z,700.30
2022-12-23T09:08:16.049Z,558.20
2022-12-23T09:09:16.107Z,608.60
2022-12-23T09:10:16.010Z,725.50
2022-12-23T09:11:15.957Z,722.50
2022-12-23T09:12:15.989Z,975.00
2022-12-23T09:13:24.941Z,768.80
2022-12-23T09:14:17.074Z,699.10
2022-12-23T09:15:15.946Z,646.20
2022-12-23T09:16:15.945Z,584.30
2022-12-23T09:17:15.880Z,504.40
2022-12-23T09:18:15.929Z,517.20
2022-12-23T09:19:15.845Z,688.70
2022-12-23T09:20:15.914Z,624.40
2022-12-23T09:21:15.861Z,600.30
2022-12-23T09:22:15.835Z,662.40
2022-12-23T09:23:15.824Z,636.90
2022-12-23T09:24:15.811Z,590.40
2022-12-23T09:25:15.785Z,657.00
2022-12-23T09:26:15.930Z,927.90
2022-12-23T09:27:15.753Z,854.90
2022-12-23T09:28:15.788Z,886.30
2022-12-23T09:29:15.740Z,892.70
2022-12-23T09:30:15.724Z,802.10
2022-12-23T09:31:15.757Z,805.80
2022-12-23T09:32:15.726Z,806.50
2022-12-23T09:33:15.657Z,823.20
2022-12-23T09:34:15.682Z,754.90
2022-12-23T09:35:15.610Z,866.00
2022-12-23T09:36:15.647Z,945.20
2022-12-23T09:37:15.603Z,884.60
2022-12-23T09:38:15.707Z,953.20
2022-12-23T09:39:15.578Z,875.60
2022-12-23T09:40:15.572Z,857.80
2022-12-23T09:41:15.535Z,820.30
2022-12-23T09:42:15.570Z,705.80
2022-12-23T09:43:15.533Z,666.80
2022-12-23T09:44:15.551Z,660.30
2022-12-23T09:45:15.473Z,664.70
2022-12-23T09:46:15.550Z,633.30
2022-12-23T09:47:15.453Z,667.90
2022-12-23T09:48:15.489Z,692.10
2022-12-23T09:49:15.447Z,678.60
2022-12-23T09:50:15.541Z,680.20
2022-12-23T09:51:15.419Z,739.50
2022-12-23T09:52:15.411Z,713.00
2022-12-23T09:53:15.380Z,718.40
2022-12-23T09:54:17.402Z,714.70
2022-12-23T09:55:15.340Z,734.60
2022-12-23T09:56:15.489Z,644.40
2022-12-23T09:57:15.342Z,651.70
2022-12-23T09:58:15.335Z,659.50
2022-12-23T09:59:15.286Z,662.80
2022-12-23T10:00:15.356Z,672.50
2022-12-23T10:01:15.374Z,550.90
2022-12-23T10:02:15.450Z,498.50
2022-12-23T10:03:15.542Z,600.60
2022-12-23T10:04:15.289Z,696.00
2022-12-23T10:05:15.213Z,577.50
2022-12-23T10:06:15.252Z,573.80
2022-12-23T10:07:15.187Z,715.20
2022-12-23T10:08:15.255Z,739.30
2022-12-23T10:09:15.184Z,592.70
2022-12-23T10:10:15.171Z,664.20
2022-12-23T10:11:15.158Z,650.10
2022-12-23T10:12:15.149Z,695.20
2022-12-23T10:13:15.098Z,711.10
2022-12-23T10:14:15.175Z,706.30
2022-12-23T10:15:15.168Z,704.10
2022-12-23T10:16:15.119Z,697.20
2022-12-23T10:17:15.056Z,734.60
2022-12-23T10:18:15.088Z,569.70
2022-12-23T10:19:15.020Z,788.90
2022-12-23T10:20:15.099Z,739.50
2022-12-23T10:21:15.797Z,634.30
2022-12-23T10:22:15.013Z,561.10
2022-12-23T10:23:15.004Z,562.50
2022-12-23T10:24:14.983Z,400.40
2022-12-23T10:25:14.941Z,527.70
2022-12-23T10:26:15.021Z,565.40
2022-12-23T10:27:14.912Z,456.90
2022-12-23T10:28:14.957Z,549.50
2022-12-23T10:29:18.703Z,435.30
2022-12-23T10:30:42.443Z,661.30
2022-12-23T10:31:40.412Z,478.20
2022-12-23T10:32:15.948Z,509.10
2022-12-23T10:33:14.891Z,453.10
2022-12-23T10:34:14.816Z,546.30
2022-12-23T10:35:14.861Z,541.60
2022-12-23T10:36:14.910Z,512.50
2022-12-23T10:37:14.842Z,467.80
2022-12-23T10:38:14.792Z,538.90
2022-12-23T10:39:14.775Z,582.10
2022-12-23T10:40:14.763Z,489.20
2022-12-23T10:41:14.781Z,493.50
2022-12-23T10:42:14.721Z,466.60
2022-12-23T10:43:14.797Z,557.30
2022-12-23T10:44:14.699Z,400.30
2022-12-23T10:45:14.701Z,419.90
2022-12-23T10:46:14.714Z,391.00
2022-12-23T10:47:14.705Z,389.50
2022-12-23T10:48:14.640Z,393.80
2022-12-23T10:49:14.680Z,411.20
2022-12-23T10:50:14.629Z,382.50
2022-12-23T10:51:14.625Z,390.10
2022-12-23T10:52:14.607Z,405.20
2022-12-23T10:53:14.624Z,385.00
2022-12-23T10:54:14.550Z,370.80
2022-12-23T10:55:14.713Z,380.60
2022-12-23T10:56:14.529Z,367.10
2022-12-23T10:57:14.547Z,379.60
2022-12-23T10:58:14.553Z,345.20
2022-12-23T10:59:14.511Z,339.50
2022-12-23T11:00:14.497Z,332.40
2022-12-23T11:01:22.044Z,347.00
2022-12-23T11:02:15.555Z,356.80
2022-12-23T11:03:14.530Z,362.50
2022-12-23T11:04:14.446Z,360.90
2022-12-23T11:05:14.466Z,361.00
2022-12-23T11:06:14.395Z,397.00
2022-12-23T11:08:15.369Z,345.70
2022-12-23T11:09:14.379Z,377.70
2022-12-23T11:10:14.369Z,377.50
2022-12-23T11:11:14.355Z,325.70
2022-12-23T11:12:14.342Z,360.00
2022-12-23T11:13:14.472Z,383.00
2022-12-23T11:14:14.292Z,356.80
2022-12-23T11:15:14.333Z,318.10
2022-12-23T11:16:14.319Z,310.60
2022-12-23T11:17:14.280Z,393.80
2022-12-23T11:18:14.291Z,461.20
2022-12-23T11:19:14.309Z,425.30
2022-12-23T11:20:14.223Z,381.50
2022-12-23T11:21:14.226Z,383.90
2022-12-23T11:22:14.213Z,350.60
2022-12-23T11:23:14.197Z,335.00
2022-12-23T11:24:14.212Z,384.00
2022-12-23T11:25:14.224Z,348.60
2022-12-23T11:26:14.172Z,359.50
2022-12-23T11:27:14.196Z,321.90
2022-12-23T11:28:14.108Z,269.50
2022-12-23T11:29:14.115Z,329.40
2022-12-23T11:30:14.183Z,266.50
2022-12-23T11:31:14.272Z,271.50
2022-12-23T11:32:14.092Z,354.10
2022-12-23T11:33:14.093Z,249.10
2022-12-23T11:34:14.028Z,287.80
2022-12-23T11:35:14.096Z,268.40
2022-12-23T11:36:14.022Z,266.30
2022-12-23T11:37:14.031Z,252.10
2022-12-23T11:38:13.998Z,327.00
2022-12-23T11:39:13.987Z,315.50
2022-12-23T11:40:13.976Z,303.40
2022-12-23T11:41:13.980Z,304.80
2022-12-23T11:42:13.920Z,263.80
2022-12-23T11:43:14.083Z,256.70
2022-12-23T11:44:13.885Z,254.20
2022-12-23T11:45:13.906Z,296.90
2022-12-23T11:46:13.966Z,272.70
2022-12-23T11:47:13.876Z,232.40
2022-12-23T11:48:13.861Z,269.30
2022-12-23T11:49:13.908Z,266.20
2022-12-23T11:50:13.841Z,220.00
2022-12-23T11:51:13.826Z,227.30
2022-12-23T11:52:13.812Z,234.10
2022-12-23T11:53:13.816Z,224.90
2022-12-23T11:54:13.753Z,223.00
2022-12-23T11:55:13.910Z,217.70
2022-12-23T11:56:13.733Z,222.80
2022-12-23T11:57:13.823Z,229.60
2022-12-23T11:58:13.723Z,221.10
2022-12-23T11:59:13.719Z,254.30
2022-12-23T12:00:13.704Z,240.40
2022-12-23T12:01:13.834Z,225.20
2022-12-23T12:02:13.686Z,266.90
2022-12-23T12:03:13.708Z,310.50
2022-12-23T12:04:13.625Z,339.20
2022-12-23T12:05:13.628Z,273.70
2022-12-23T12:06:13.616Z,229.90
2022-12-23T12:07:13.743Z,255.40
2022-12-23T12:08:13.566Z,257.80
2022-12-23T12:09:13.581Z,250.40
2022-12-23T12:10:13.587Z,222.50
2022-12-23T12:11:13.553Z,214.50
2022-12-23T12:12:13.545Z,224.10
2022-12-23T12:13:13.593Z,240.80
2022-12-23T12:14:13.482Z,239.00
2022-12-23T12:15:13.528Z,269.90
2022-12-23T12:16:13.506Z,227.80
2022-12-23T12:17:13.518Z,255.40
2022-12-23T12:18:13.473Z,247.00
2022-12-23T12:19:13.482Z,271.50
2022-12-23T12:20:13.443Z,267.60
2022-12-23T12:21:13.450Z,265.90
2022-12-23T12:22:13.374Z,253.10
2022-12-23T12:23:13.395Z,241.60
2022-12-23T12:24:18.961Z,260.10
2022-12-23T12:25:14.425Z,275.20
2022-12-23T12:26:13.324Z,265.00
2022-12-23T12:27:13.372Z,255.10
2022-12-23T12:28:13.318Z,269.30
2022-12-23T12:29:13.327Z,274.70
2022-12-23T12:30:13.343Z,284.10
2022-12-23T12:31:13.339Z,263.10
2022-12-23T12:32:13.273Z,269.50
2022-12-23T12:33:13.284Z,284.60
2022-12-23T12:34:13.216Z,258.80
2022-12-23T12:35:13.263Z,245.10
2022-12-23T12:36:13.238Z,239.90
2022-12-23T12:37:13.251Z,240.80
2022-12-23T12:38:13.210Z,257.40
2022-12-23T12:39:13.178Z,262.30
2022-12-23T12:40:13.168Z,280.90
2022-12-23T12:41:13.182Z,289.20
2022-12-23T12:42:13.106Z,277.10
2022-12-23T12:43:13.177Z,304.90
2022-12-23T12:44:13.082Z,297.30
2022-12-23T12:45:13.106Z,325.70
2022-12-23T12:46:13.139Z,317.20
2022-12-23T12:47:36.188Z,295.30
2022-12-23T12:48:18.801Z,316.10
2022-12-23T12:49:14.087Z,342.80
2022-12-23T12:50:13.056Z,353.70
2022-12-23T12:51:13.041Z,310.20
2022-12-23T12:52:12.973Z,360.90
2022-12-23T12:53:13.009Z,347.70
2022-12-23T12:54:13.085Z,334.10
2022-12-23T12:55:12.989Z,317.90
2022-12-23T12:56:12.922Z,320.80
2022-12-23T12:57:12.939Z,353.60
2022-12-23T12:58:12.939Z,362.70
2022-12-23T12:59:12.905Z,296.70
2022-12-23T13:00:12.946Z,312.20
2022-12-23T13:01:12.960Z,295.00
2022-12-23T13:02:12.882Z,260.20
2022-12-23T13:03:12.911Z,255.90
2022-12-23T13:04:12.813Z,255.00
2022-12-23T13:05:12.854Z,270.70
2022-12-23T13:06:12.849Z,294.10
2022-12-23T13:07:12.824Z,279.70
2022-12-23T13:08:12.790Z,270.30
2022-12-23T13:09:13.069Z,281.30
2022-12-23T13:10:12.743Z,288.90
2022-12-23T13:11:12.752Z,299.50
2022-12-23T13:12:12.763Z,306.00
2022-12-23T13:13:12.753Z,315.70
2022-12-23T13:14:12.691Z,309.30
2022-12-23T13:15:12.723Z,328.90
2022-12-23T13:16:12.677Z,331.80
2022-12-23T13:17:12.713Z,303.40
2022-12-23T13:18:12.826Z,310.90
2022-12-23T13:19:12.652Z,300.20
2022-12-23T13:20:12.635Z,309.70
2022-12-23T13:21:12.650Z,263.90
2022-12-23T13:22:12.568Z,290.50
2022-12-23T13:23:41.672Z,312.60
2022-12-23T13:24:13.577Z,267.60
2022-12-23T13:25:12.559Z,290.20
2022-12-23T13:26:12.553Z,326.80
2022-12-23T13:27:12.575Z,322.80
2022-12-23T13:28:12.499Z,353.10
2022-12-23T13:30:23.569Z,275.30
2022-12-23T13:31:23.579Z,291.70
2022-12-23T13:32:23.511Z,369.00
2022-12-23T13:33:23.521Z,339.10
2022-12-23T13:34:23.452Z,340.50
2022-12-23T13:35:23.417Z,333.70
2022-12-23T13:36:23.599Z,357.70
2022-12-23T13:37:23.420Z,330.10
2022-12-23T13:38:23.402Z,291.10
2022-12-23T13:39:23.400Z,279.20
2022-12-23T13:40:23.373Z,279.00
2022-12-23T13:41:23.332Z,275.30
2022-12-23T13:42:23.488Z,286.80
2022-12-23T13:43:23.322Z,294.20
2022-12-23T13:44:26.043Z,315.70
2022-12-23T13:45:30.127Z,258.80
2022-12-23T13:46:29.266Z,228.20
2022-12-23T13:47:27.073Z,244.30
2022-12-23T13:48:25.611Z,240.60
2022-12-23T13:49:23.686Z,230.30
2022-12-23T13:50:26.695Z,211.00
2022-12-23T13:51:31.688Z,226.10
2022-12-23T13:52:24.401Z,194.20
2022-12-23T13:53:26.906Z,200.30
2022-12-23T13:54:27.327Z,211.70